Time;durP1;ratioP1;P1;durP2;ratioP2;P2;SDS_P1;SDS_P2;PMS_P1;PMS_P2;Temp;Humidity;BMP_temperature;BMP_pressure;BME280_temperature;BME280_humidity;BME280_pressure;Samples;Min_cycle;Max_cycle;Signal;HPM_P1;HPM_P2
2023/04/30 00:00:58;;;;;;;12.88;8.27;;;;;;;;;;4871658;29;20041;-53
2023/04/30 00:03:23;;;;;;;14.52;9.13;;;;;;;;;;4869440;29;20519;-54
2023/04/30 00:05:49;;;;;;;13.43;9.13;;;;;;;;;;4871945;29;20041;-54
2023/04/30 00:08:14;;;;;;;15.45;10.27;;;;;;;;;;4871450;29;20165;-55
2023/04/30 00:10:40;;;;;;;18.20;9.65;;;;;;;;;;4870982;29;20037;-55
2023/04/30 00:13:05;;;;;;;13.77;9.18;;;;;;;;;;4871397;29;20107;-53
2023/04/30 00:15:30;;;;;;;15.45;9.88;;;;;;;;;;4871636;29;20389;-54
2023/04/30 00:17:56;;;;;;;14.98;10.25;;;;;;;;;;4855511;29;20040;-57
2023/04/30 00:20:21;;;;;;;13.57;9.50;;;;;;;;;;4870041;29;20503;-50
2023/04/30 00:22:46;;;;;;;16.40;9.40;;;;;;;;;;4871049;29;20044;-51
2023/04/30 00:25:12;;;;;;;15.52;10.27;;;;;;;;;;4870256;29;20088;-56
2023/04/30 00:27:37;;;;;;;14.65;9.57;;;;;;;;;;4872633;29;20045;-54
2023/04/30 00:30:03;;;;;;;17.60;10.25;;;;;;;;;;4871943;29;20116;-57
2023/04/30 00:32:28;;;;;;;17.08;9.70;;;;;;;;;;4869678;29;20041;-58
2023/04/30 00:34:53;;;;;;;19.15;10.38;;;;;;;;;;4870473;29;20061;-58
2023/04/30 00:37:19;;;;;;;15.40;10.15;;;;;;;;;;4848083;29;20033;-56
2023/04/30 00:39:44;;;;;;;17.40;10.57;;;;;;;;;;4840901;29;20124;-55
2023/04/30 00:42:09;;;;;;;15.05;10.32;;;;;;;;;;4870824;29;20387;-56
2023/04/30 00:44:34;;;;;;;17.77;10.52;;;;;;;;;;4847933;29;20563;-54
2023/04/30 00:47:00;;;;;;;16.92;11.10;;;;;;;;;;4869032;29;20112;-56
2023/04/30 00:49:25;;;;;;;18.17;11.13;;;;;;;;;;4871370;29;20029;-56
2023/04/30 00:51:51;;;;;;;15.35;10.27;;;;;;;;;;4871763;29;20037;-56
2023/04/30 00:54:18;;;;;;;14.30;10.35;;;;;;;;;;4839932;29;20089;-56
2023/04/30 00:56:44;;;;;;;16.02;10.50;;;;;;;;;;4849122;29;20037;-56
2023/04/30 00:59:09;;;;;;;16.27;11.10;;;;;;;;;;4869731;29;20052;-55
2023/04/30 01:01:35;;;;;;;23.70;10.25;;;;;;;;;;4854896;29;20100;-53
2023/04/30 01:04:00;;;;;;;14.93;10.50;;;;;;;;;;4872029;29;20029;-51
2023/04/30 01:06:26;;;;;;;15.95;9.95;;;;;;;;;;4869954;29;20069;-48
2023/04/30 01:08:52;;;;;;;15.98;10.02;;;;;;;;;;4869465;29;20117;-52
2023/04/30 01:11:24;;;;;;;16.52;10.10;;;;;;;;;;4871233;29;20579;-51
2023/04/30 01:14:11;;;;;;;16.52;10.63;;;;;;;;;;4869515;29;20415;-53
2023/04/30 01:16:40;;;;;;;20.60;10.00;;;;;;;;;;4870615;29;20037;-51
2023/04/30 01:19:16;;;;;;;16.30;10.35;;;;;;;;;;4869417;29;20396;-58
2023/04/30 01:21:42;;;;;;;16.92;10.55;;;;;;;;;;4871880;29;20476;-57
2023/04/30 01:24:26;;;;;;;15.57;10.73;;;;;;;;;;4869341;29;20383;-54
2023/04/30 01:27:03;;;;;;;16.15;10.45;;;;;;;;;;4869767;29;20077;-56
2023/04/30 01:29:29;;;;;;;16.85;10.95;;;;;;;;;;4868112;29;20055;-55
2023/04/30 01:31:54;;;;;;;17.05;11.18;;;;;;;;;;4872152;29;20033;-54
2023/04/30 01:34:20;;;;;;;17.67;11.20;;;;;;;;;;4853028;29;20437;-55
2023/04/30 01:37:11;;;;;;;14.70;11.15;;;;;;;;;;4870351;29;20380;-55
2023/04/30 01:39:37;;;;;;;18.85;11.70;;;;;;;;;;4868283;29;20041;-53
2023/04/30 01:42:21;;;;;;;16.70;10.45;;;;;;;;;;4849517;29;20041;-50
2023/04/30 01:44:47;;;;;;;15.45;10.52;;;;;;;;;;4867162;29;20136;-55
2023/04/30 01:47:31;;;;;;;15.35;10.85;;;;;;;;;;4846372;29;20140;-56
2023/04/30 01:50:15;;;;;;;15.52;10.60;;;;;;;;;;4871788;29;20124;-57
2023/04/30 01:52:43;;;;;;;16.40;10.73;;;;;;;;;;4871285;29;20033;-52
2023/04/30 01:55:27;;;;;;;15.70;11.10;;;;;;;;;;4870510;29;20203;-55
2023/04/30 01:58:01;;;;;;;20.08;11.60;;;;;;;;;;4848305;29;20068;-54
2023/04/30 02:00:27;;;;;;;15.02;11.15;;;;;;;;;;4853686;29;20048;-57
2023/04/30 02:02:54;;;;;;;16.00;11.10;;;;;;;;;;4846460;29;20456;-57
2023/04/30 02:05:20;;;;;;;15.90;10.55;;;;;;;;;;4871098;29;20524;-55
2023/04/30 02:07:47;;;;;;;16.77;10.85;;;;;;;;;;4871004;29;20561;-57
2023/04/30 02:10:14;;;;;;;16.95;11.00;;;;;;;;;;4870326;29;20128;-54
2023/04/30 02:12:40;;;;;;;17.10;11.40;;;;;;;;;;4870902;29;20041;-54
2023/04/30 02:15:05;;;;;;;16.02;10.40;;;;;;;;;;4872688;29;20092;-53
2023/04/30 02:17:31;;;;;;;15.20;10.90;;;;;;;;;;4849676;29;20036;-53
2023/04/30 02:19:57;;;;;;;15.77;11.20;;;;;;;;;;4847437;29;20033;-54
2023/04/30 02:22:22;;;;;;;17.45;11.32;;;;;;;;;;4874214;29;20108;-50
2023/04/30 02:24:48;;;;;;;17.38;11.27;;;;;;;;;;4872738;29;20101;-56
2023/04/30 02:27:13;;;;;;;17.33;11.60;;;;;;;;;;4874409;29;20092;-54
2023/04/30 02:29:38;;;;;;;14.60;10.45;;;;;;;;;;4847774;29;20403;-53
2023/04/30 02:32:04;;;;;;;16.73;10.65;;;;;;;;;;4873589;29;20111;-56
2023/04/30 02:34:29;;;;;;;17.88;10.88;;;;;;;;;;4872601;29;20497;-55
2023/04/30 02:36:54;;;;;;;16.25;11.38;;;;;;;;;;4871550;29;20498;-56
2023/04/30 02:39:20;;;;;;;17.15;11.48;;;;;;;;;;4871683;29;20089;-53
2023/04/30 02:41:45;;;;;;;18.10;11.23;;;;;;;;;;4847483;29;20037;-53
2023/04/30 02:44:11;;;;;;;16.05;11.35;;;;;;;;;;4872212;29;20119;-51
2023/04/30 02:46:36;;;;;;;16.98;11.93;;;;;;;;;;4871112;29;20060;-57
2023/04/30 02:49:01;;;;;;;15.90;11.18;;;;;;;;;;4873135;29;20040;-54
2023/04/30 02:51:27;;;;;;;15.93;10.70;;;;;;;;;;4872286;29;20532;-56
2023/04/30 02:53:52;;;;;;;15.68;11.70;;;;;;;;;;4871603;29;20638;-56
2023/04/30 02:56:18;;;;;;;16.77;11.13;;;;;;;;;;4850640;29;20025;-53
2023/04/30 02:58:43;;;;;;;17.30;11.30;;;;;;;;;;4871947;29;20093;-56
2023/04/30 03:01:08;;;;;;;15.65;11.43;;;;;;;;;;4848098;29;20472;-55
2023/04/30 03:03:34;;;;;;;17.42;11.50;;;;;;;;;;4872364;29;20476;-56
2023/04/30 03:05:59;;;;;;;15.93;11.68;;;;;;;;;;4870151;29;20445;-56
2023/04/30 03:08:25;;;;;;;14.60;10.93;;;;;;;;;;4870953;29;20037;-53
2023/04/30 03:10:51;;;;;;;16.58;11.65;;;;;;;;;;4872102;29;20032;-56
2023/04/30 03:13:16;;;;;;;18.80;11.75;;;;;;;;;;4873057;29;20567;-52
2023/04/30 03:15:42;;;;;;;21.02;11.98;;;;;;;;;;4872814;29;20088;-54
2023/04/30 03:18:07;;;;;;;17.73;11.60;;;;;;;;;;4871525;29;20044;-53
2023/04/30 03:20:32;;;;;;;17.42;11.75;;;;;;;;;;4871906;29;20514;-55
2023/04/30 03:22:58;;;;;;;16.98;12.35;;;;;;;;;;4872779;29;20148;-54
2023/04/30 03:25:23;;;;;;;17.50;11.85;;;;;;;;;;4869029;29;20507;-53
2023/04/30 03:27:49;;;;;;;17.77;12.10;;;;;;;;;;4873082;29;20162;-54
2023/04/30 03:30:14;;;;;;;15.57;11.45;;;;;;;;;;4848864;29;20033;-54
2023/04/30 03:32:39;;;;;;;17.88;12.13;;;;;;;;;;4873269;29;20046;-56
2023/04/30 03:35:05;;;;;;;17.08;11.90;;;;;;;;;;4857042;29;20033;-52
2023/04/30 03:37:30;;;;;;;18.00;11.40;;;;;;;;;;4873204;29;20057;-54
2023/04/30 03:39:56;;;;;;;16.40;12.23;;;;;;;;;;4854319;29;20025;-52
2023/04/30 03:42:21;;;;;;;18.58;12.25;;;;;;;;;;4871260;29;20057;-56
2023/04/30 03:44:46;;;;;;;18.50;12.30;;;;;;;;;;4871499;29;20055;-52
2023/04/30 03:47:12;;;;;;;17.45;11.93;;;;;;;;;;4869870;29;20029;-55
2023/04/30 03:49:37;;;;;;;18.95;12.13;;;;;;;;;;4855630;29;20036;-56
2023/04/30 03:52:04;;;;;;;17.70;11.95;;;;;;;;;;4871388;29;20208;-55
2023/04/30 03:54:30;;;;;;;17.37;12.00;;;;;;;;;;4872614;29;20037;-55
2023/04/30 03:56:55;;;;;;;18.77;13.20;;;;;;;;;;4850493;29;20040;-57
2023/04/30 03:59:21;;;;;;;18.57;12.50;;;;;;;;;;4853624;29;20037;-57
2023/04/30 04:01:47;;;;;;;19.20;12.45;;;;;;;;;;4870987;29;20036;-53
2023/04/30 04:04:12;;;;;;;18.42;12.30;;;;;;;;;;4870409;29;20032;-55
2023/04/30 04:06:38;;;;;;;19.08;12.32;;;;;;;;;;4869768;29;20132;-54
2023/04/30 04:09:03;;;;;;;19.48;12.93;;;;;;;;;;4870666;29;20048;-57
2023/04/30 04:11:29;;;;;;;15.35;11.35;;;;;;;;;;4854555;29;20033;-57
2023/04/30 04:13:55;;;;;;;15.90;12.00;;;;;;;;;;4854932;29;20391;-57
2023/04/30 04:16:21;;;;;;;16.98;12.25;;;;;;;;;;4871939;29;20033;-56
2023/04/30 04:18:46;;;;;;;17.88;12.20;;;;;;;;;;4868416;29;20037;-57
2023/04/30 04:21:11;;;;;;;16.42;11.35;;;;;;;;;;4869733;29;20036;-55
2023/04/30 04:23:37;;;;;;;17.33;12.27;;;;;;;;;;4870332;29;20453;-56
2023/04/30 04:26:03;;;;;;;15.65;11.82;;;;;;;;;;4832258;29;20037;-57
2023/04/30 04:28:28;;;;;;;17.42;12.30;;;;;;;;;;4847655;29;20068;-55
2023/04/30 04:30:54;;;;;;;16.92;12.18;;;;;;;;;;4848860;29;20032;-55
2023/04/30 04:33:20;;;;;;;19.75;12.05;;;;;;;;;;4870633;29;20558;-57
2023/04/30 04:35:46;;;;;;;16.63;11.35;;;;;;;;;;4854788;29;20044;-56
2023/04/30 04:38:11;;;;;;;19.67;12.55;;;;;;;;;;4868533;29;20048;-57
2023/04/30 04:40:37;;;;;;;16.65;11.85;;;;;;;;;;4847265;29;20044;-57
2023/04/30 04:43:03;;;;;;;18.20;12.45;;;;;;;;;;4871657;29;20128;-55
2023/04/30 04:45:28;;;;;;;19.77;12.27;;;;;;;;;;4848444;29;20408;-55
2023/04/30 04:47:54;;;;;;;17.17;11.38;;;;;;;;;;4868872;29;20041;-56
2023/04/30 04:50:20;;;;;;;19.80;12.07;;;;;;;;;;4871739;29;20037;-55
2023/04/30 04:52:45;;;;;;;15.43;11.48;;;;;;;;;;4869919;29;20325;-53
2023/04/30 04:55:11;;;;;;;17.60;11.75;;;;;;;;;;4850102;29;20037;-53
2023/04/30 04:57:36;;;;;;;15.85;11.45;;;;;;;;;;4848581;29;20041;-55
2023/04/30 05:00:02;;;;;;;15.52;11.90;;;;;;;;;;4854281;29;20615;-55
2023/04/30 05:02:28;;;;;;;17.95;12.15;;;;;;;;;;4869759;29;20033;-54
2023/04/30 05:04:54;;;;;;;15.30;11.75;;;;;;;;;;4848049;29;20045;-55
2023/04/30 05:07:20;;;;;;;18.08;11.35;;;;;;;;;;4868501;29;20033;-56
2023/04/30 05:09:46;;;;;;;16.88;11.70;;;;;;;;;;4870682;29;20465;-54
2023/04/30 05:12:11;;;;;;;15.65;11.38;;;;;;;;;;4852106;29;20025;-55
2023/04/30 05:14:36;;;;;;;17.02;10.98;;;;;;;;;;4865365;29;20040;-53
2023/04/30 05:17:02;;;;;;;16.13;10.95;;;;;;;;;;4872233;29;20033;-55
2023/04/30 05:19:27;;;;;;;15.55;11.55;;;;;;;;;;4870808;29;20496;-54
2023/04/30 05:21:52;;;;;;;15.05;11.32;;;;;;;;;;4871389;29;20029;-56
2023/04/30 05:24:18;;;;;;;15.82;11.48;;;;;;;;;;4869973;29;20033;-55
2023/04/30 05:26:43;;;;;;;15.68;11.40;;;;;;;;;;4868977;29;20586;-53
2023/04/30 05:29:10;;;;;;;16.65;12.00;;;;;;;;;;4869235;29;20037;-55
2023/04/30 05:31:36;;;;;;;;;;;;;;;;;;4872122;29;20044;-53
2023/04/30 05:34:01;;;;;;;20.48;11.55;;;;;;;;;;4870580;29;19920;-55
2023/04/30 05:36:27;;;;;;;14.93;11.32;;;;;;;;;;4871456;29;20047;-55
2023/04/30 05:38:53;;;;;;;16.65;11.75;;;;;;;;;;4869850;29;20089;-55
2023/04/30 05:41:18;;;;;;;18.23;11.77;;;;;;;;;;4870330;29;20033;-56
2023/04/30 05:43:43;;;;;;;16.45;11.10;;;;;;;;;;4870170;29;20068;-53
2023/04/30 05:46:09;;;;;;;16.38;12.20;;;;;;;;;;4870832;29;20555;-51
2023/04/30 05:48:34;;;;;;;17.42;10.98;;;;;;;;;;4871199;29;20119;-52
2023/04/30 05:50:59;;;;;;;18.05;12.30;;;;;;;;;;4874253;29;20051;-52
2023/04/30 05:53:25;;;;;;;15.88;10.90;;;;;;;;;;4873653;29;20045;-56
2023/04/30 05:55:50;;;;;;;18.98;11.15;;;;;;;;;;4874261;29;20029;-57
2023/04/30 05:58:15;;;;;;;16.20;12.13;;;;;;;;;;4874163;29;20033;-52
2023/04/30 06:00:41;;;;;;;19.17;11.63;;;;;;;;;;4873067;29;20025;-55
2023/04/30 06:03:06;;;;;;;15.60;10.88;;;;;;;;;;4874135;29;20028;-53
2023/04/30 06:05:32;;;;;;;15.10;11.27;;;;;;;;;;4872787;29;20112;-50
2023/04/30 06:08:00;;;;;;;16.65;11.27;;;;;;;;;;4870771;29;20037;-54
2023/04/30 06:10:25;;;;;;;14.95;11.40;;;;;;;;;;4873440;29;20480;-53
2023/04/30 06:12:51;;;;;;;15.32;11.45;;;;;;;;;;4873297;29;20152;-51
2023/04/30 06:15:16;;;;;;;17.73;11.23;;;;;;;;;;4877088;29;20088;-54
2023/04/30 06:17:42;;;;;;;15.77;10.68;;;;;;;;;;4872186;29;20059;-53
2023/04/30 06:20:08;;;;;;;18.20;11.38;;;;;;;;;;4871821;29;20124;-55
2023/04/30 06:22:33;;;;;;;17.88;12.00;;;;;;;;;;4874143;29;20423;-54
2023/04/30 06:24:58;;;;;;;17.40;11.15;;;;;;;;;;4874622;29;20127;-56
2023/04/30 06:27:25;;;;;;;18.65;10.70;;;;;;;;;;4855235;29;20037;-56
2023/04/30 06:29:50;;;;;;;17.47;10.60;;;;;;;;;;4873499;29;20029;-56
2023/04/30 06:32:15;;;;;;;15.68;11.05;;;;;;;;;;4873874;29;20038;-55
2023/04/30 06:34:41;;;;;;;14.43;10.40;;;;;;;;;;4856766;29;20045;-55
2023/04/30 06:37:06;;;;;;;18.27;10.43;;;;;;;;;;4873376;29;20041;-57
2023/04/30 06:39:31;;;;;;;12.70;10.30;;;;;;;;;;4872421;29;20032;-53
2023/04/30 06:41:56;;;;;;;14.88;10.98;;;;;;;;;;4874459;29;20446;-57
2023/04/30 06:44:22;;;;;;;15.45;10.25;;;;;;;;;;4857575;29;20037;-59
2023/04/30 06:46:47;;;;;;;15.98;10.65;;;;;;;;;;4849333;29;20567;-53
2023/04/30 06:49:13;;;;;;;15.48;10.35;;;;;;;;;;4874267;29;20483;-56
2023/04/30 06:51:40;;;;;;;15.55;9.90;;;;;;;;;;4856150;29;20607;-54
2023/04/30 06:54:06;;;;;;;16.15;10.95;;;;;;;;;;4873100;29;20069;-53
2023/04/30 06:56:31;;;;;;;14.25;9.65;;;;;;;;;;4872528;29;20171;-53
2023/04/30 06:58:56;;;;;;;14.77;10.20;;;;;;;;;;4872380;29;20064;-53
2023/04/30 07:01:25;;;;;;;14.52;10.60;;;;;;;;;;4872997;29;20029;-55
2023/04/30 07:03:51;;;;;;;14.45;10.55;;;;;;;;;;4873494;29;20396;-53
2023/04/30 07:06:16;;;;;;;11.93;9.77;;;;;;;;;;4873744;29;20041;-55
2023/04/30 07:08:42;;;;;;;13.77;10.02;;;;;;;;;;4849788;29;20291;-55
2023/04/30 07:11:08;;;;;;;13.68;9.70;;;;;;;;;;4872578;29;20037;-52
2023/04/30 07:13:33;;;;;;;14.15;9.35;;;;;;;;;;4873981;29;20064;-53
2023/04/30 07:15:58;;;;;;;11.18;9.00;;;;;;;;;;4873833;29;20048;-56
2023/04/30 07:18:24;;;;;;;14.40;9.43;;;;;;;;;;4873402;29;20124;-55
2023/04/30 07:20:49;;;;;;;14.52;10.07;;;;;;;;;;4872719;29;20373;-54
2023/04/30 07:23:15;;;;;;;12.70;9.48;;;;;;;;;;4856912;29;20480;-54
2023/04/30 07:25:41;;;;;;;12.05;8.15;;;;;;;;;;4872601;29;20041;-55
2023/04/30 07:28:07;;;;;;;10.93;8.63;;;;;;;;;;4856364;29;20037;-53
2023/04/30 07:30:32;;;;;;;20.65;12.55;;;;;;;;;;4873440;29;20045;-55
2023/04/30 07:32:57;;;;;;;13.45;8.57;;;;;;;;;;4872804;29;20559;-54
2023/04/30 07:35:23;;;;;;;9.00;7.35;;;;;;;;;;4873193;29;20052;-57
2023/04/30 07:37:48;;;;;;;11.13;7.63;;;;;;;;;;4842378;29;20048;-55
2023/04/30 07:40:13;;;;;;;10.30;7.50;;;;;;;;;;4873044;29;20041;-56
2023/04/30 07:42:40;;;;;;;13.00;7.75;;;;;;;;;;4856063;29;20095;-56
2023/04/30 07:45:06;;;;;;;10.18;7.57;;;;;;;;;;4872435;29;20565;-56
2023/04/30 07:47:31;;;;;;;12.50;6.90;;;;;;;;;;4870967;29;20121;-57
2023/04/30 07:49:57;;;;;;;10.35;6.85;;;;;;;;;;4873409;29;20037;-55
2023/04/30 07:52:22;;;;;;;11.10;7.22;;;;;;;;;;4871073;29;20395;-56
2023/04/30 07:54:50;;;;;;;11.07;6.88;;;;;;;;;;4872089;29;20443;-55
2023/04/30 07:57:16;;;;;;;9.90;6.90;;;;;;;;;;4871054;29;20029;-55
2023/04/30 07:59:41;;;;;;;8.95;5.65;;;;;;;;;;4872059;29;20451;-55
2023/04/30 08:02:07;;;;;;;9.60;6.28;;;;;;;;;;4871882;29;20047;-54
2023/04/30 08:04:32;;;;;;;8.63;5.37;;;;;;;;;;4853771;29;20072;-54
2023/04/30 08:06:58;;;;;;;7.43;5.80;;;;;;;;;;4870471;29;20728;-54
2023/04/30 08:09:23;;;;;;;7.00;5.53;;;;;;;;;;4868666;29;20040;-56
2023/04/30 08:11:49;;;;;;;7.57;5.65;;;;;;;;;;4872335;29;20694;-54
2023/04/30 08:14:14;;;;;;;8.60;5.18;;;;;;;;;;4870242;29;20032;-53
2023/04/30 08:16:39;;;;;;;8.70;4.63;;;;;;;;;;4872079;29;20088;-54
2023/04/30 08:19:05;;;;;;;7.28;4.57;;;;;;;;;;4870638;29;20033;-55
2023/04/30 08:21:31;;;;;;;7.50;4.13;;;;;;;;;;4872038;29;20039;-56
2023/04/30 08:23:56;;;;;;;8.55;4.40;;;;;;;;;;4869831;29;20436;-56
2023/04/30 08:26:22;;;;;;;8.93;5.30;;;;;;;;;;4871232;29;20050;-55
2023/04/30 08:28:47;;;;;;;9.90;4.30;;;;;;;;;;4851806;29;20052;-53
2023/04/30 08:31:13;;;;;;;6.80;4.30;;;;;;;;;;4870106;29;20040;-53
2023/04/30 08:33:39;;;;;;;6.20;4.20;;;;;;;;;;4869870;29;20033;-56
2023/04/30 08:36:05;;;;;;;6.82;4.53;;;;;;;;;;4868937;29;20055;-56
2023/04/30 08:38:30;;;;;;;7.82;4.55;;;;;;;;;;4873286;29;20037;-55
2023/04/30 08:41:03;;;;;;;5.22;3.83;;;;;;;;;;4871083;29;20119;-59
2023/04/30 08:43:28;;;;;;;6.57;3.90;;;;;;;;;;4870388;29;20041;-55
2023/04/30 08:45:54;;;;;;;8.20;3.42;;;;;;;;;;4870982;29;20045;-54
2023/04/30 08:48:20;;;;;;;8.60;3.88;;;;;;;;;;4873103;29;20484;-56
2023/04/30 08:50:45;;;;;;;6.05;4.18;;;;;;;;;;4868607;29;20033;-54
2023/04/30 08:53:11;;;;;;;7.75;4.80;;;;;;;;;;4871720;29;20033;-56
2023/04/30 08:55:38;;;;;;;6.10;4.13;;;;;;;;;;4872586;29;20072;-57
2023/04/30 08:58:04;;;;;;;;;;;;;;;;;;4872495;29;20039;-54
2023/04/30 09:00:31;;;;;;;9.95;4.00;;;;;;;;;;4869589;29;19915;-56
2023/04/30 09:02:56;;;;;;;6.32;3.97;;;;;;;;;;4871600;29;20064;-56
2023/04/30 09:05:22;;;;;;;5.43;3.85;;;;;;;;;;4871402;29;20480;-54
2023/04/30 09:07:47;;;;;;;8.18;4.05;;;;;;;;;;4869606;29;20057;-55
2023/04/30 09:10:14;;;;;;;5.97;3.97;;;;;;;;;;4869160;29;20117;-55
2023/04/30 09:12:42;;;;;;;8.20;3.70;;;;;;;;;;4866732;29;20088;-56
2023/04/30 09:15:08;;;;;;;5.57;3.63;;;;;;;;;;4870277;29;20044;-54
2023/04/30 09:17:33;;;;;;;7.40;3.33;;;;;;;;;;4868791;29;20539;-56
2023/04/30 09:20:06;;;;;;;6.72;4.03;;;;;;;;;;4869991;29;20104;-57
2023/04/30 09:22:31;;;;;;;6.45;3.95;;;;;;;;;;4871179;29;20036;-55
2023/04/30 09:24:57;;;;;;;6.18;3.83;;;;;;;;;;4873493;29;20037;-55
2023/04/30 09:27:22;;;;;;;7.97;4.00;;;;;;;;;;4873119;29;20128;-54
2023/04/30 09:29:48;;;;;;;9.20;4.15;;;;;;;;;;4873291;29;20036;-56
2023/04/30 09:32:13;;;;;;;7.45;4.15;;;;;;;;;;4873064;29;20116;-57
2023/04/30 09:34:39;;;;;;;6.10;3.55;;;;;;;;;;4873431;29;20693;-56
2023/04/30 09:37:05;;;;;;;5.28;3.63;;;;;;;;;;4872635;29;20476;-52
2023/04/30 09:39:30;;;;;;;7.45;4.00;;;;;;;;;;4873145;29;20244;-55
2023/04/30 09:42:10;;;;;;;5.43;3.70;;;;;;;;;;4871256;29;20033;-56
2023/04/30 09:44:37;;;;;;;4.45;3.25;;;;;;;;;;4813409;29;20458;-53
2023/04/30 09:47:02;;;;;;;5.35;3.58;;;;;;;;;;4869636;29;20095;-56
2023/04/30 09:49:27;;;;;;;5.28;3.22;;;;;;;;;;4862635;29;20578;-57
2023/04/30 09:51:56;;;;;;;7.30;3.40;;;;;;;;;;4849105;29;20021;-53
2023/04/30 09:54:24;;;;;;;5.28;3.50;;;;;;;;;;4849846;29;20663;-56
2023/04/30 09:56:51;;;;;;;5.63;3.80;;;;;;;;;;4865255;29;20051;-54
2023/04/30 09:59:16;;;;;;;;;;;;;;;;;;4871015;29;20039;-52
2023/04/30 10:01:42;;;;;;;6.70;3.50;;;;;;;;;;4864453;29;19916;-57
2023/04/30 10:04:07;;;;;;;4.80;3.20;;;;;;;;;;4864813;29;20495;-57
2023/04/30 10:06:34;;;;;;;6.00;3.55;;;;;;;;;;4871320;29;20056;-57
2023/04/30 10:09:02;;;;;;;6.35;3.72;;;;;;;;;;4864880;29;20037;-57
2023/04/30 10:11:29;;;;;;;5.65;3.55;;;;;;;;;;4867185;29;20117;-59
2023/04/30 10:13:55;;;;;;;5.85;3.80;;;;;;;;;;4872633;29;20037;-55
2023/04/30 10:16:29;;;;;;;8.85;4.70;;;;;;;;;;4866265;29;20035;-59
2023/04/30 10:18:57;;;;;;;5.80;3.70;;;;;;;;;;4870472;29;20029;-56
2023/04/30 10:21:23;;;;;;;7.65;4.32;;;;;;;;;;4860821;29;20399;-56
2023/04/30 10:23:50;;;;;;;5.57;4.22;;;;;;;;;;4863170;29;20584;-57
2023/04/30 10:26:16;;;;;;;6.68;4.15;;;;;;;;;;4865209;29;20039;-53
2023/04/30 10:28:42;;;;;;;13.98;6.68;;;;;;;;;;4864499;29;20033;-55
2023/04/30 10:31:09;;;;;;;7.18;4.15;;;;;;;;;;4871584;29;20043;-53
2023/04/30 10:33:40;;;;;;;7.45;5.10;;;;;;;;;;4858900;29;20535;-54
2023/04/30 10:36:08;;;;;;;8.48;4.20;;;;;;;;;;4859786;29;20128;-56
2023/04/30 10:38:34;;;;;;;9.43;5.22;;;;;;;;;;4864508;29;20403;-56
2023/04/30 10:41:00;;;;;;;9.57;4.18;;;;;;;;;;4865674;29;20077;-56
2023/04/30 10:43:26;;;;;;;5.95;4.03;;;;;;;;;;4873424;29;20072;-54
2023/04/30 10:45:51;;;;;;;5.93;3.80;;;;;;;;;;4865948;29;20459;-55
2023/04/30 10:48:23;;;;;;;6.10;4.00;;;;;;;;;;4867481;29;20033;-56
2023/04/30 10:50:50;;;;;;;7.40;3.50;;;;;;;;;;4871724;29;20036;-54
2023/04/30 10:53:19;;;;;;;6.18;3.97;;;;;;;;;;4863484;29;20140;-55
2023/04/30 10:55:52;;;;;;;6.72;4.30;;;;;;;;;;4866834;29;20036;-55
2023/04/30 10:58:30;;;;;;;7.05;4.50;;;;;;;;;;4869047;29;20076;-55
2023/04/30 11:01:05;;;;;;;8.23;5.25;;;;;;;;;;4864949;29;20036;-56
2023/04/30 11:03:31;;;;;;;8.20;4.70;;;;;;;;;;4865615;29;20139;-51
2023/04/30 11:05:58;;;;;;;7.15;4.50;;;;;;;;;;4863567;29;20269;-53
2023/04/30 11:08:33;;;;;;;5.72;4.22;;;;;;;;;;4841166;29;20037;-54
2023/04/30 11:11:00;;;;;;;5.90;3.85;;;;;;;;;;4871062;29;20103;-54
2023/04/30 11:13:26;;;;;;;6.57;4.15;;;;;;;;;;4864823;29;20037;-55
2023/04/30 11:15:51;;;;;;;6.20;3.92;;;;;;;;;;4870077;29;20071;-58
2023/04/30 11:18:17;;;;;;;7.18;3.58;;;;;;;;;;4865233;29;20539;-53
2023/04/30 11:20:48;;;;;;;6.50;3.83;;;;;;;;;;4864361;29;20478;-55
2023/04/30 11:23:14;;;;;;;6.13;4.10;;;;;;;;;;4870737;29;20739;-55
2023/04/30 11:25:44;;;;;;;5.10;3.90;;;;;;;;;;4862949;29;20049;-56
2023/04/30 11:28:29;;;;;;;6.18;3.88;;;;;;;;;;4863849;29;20036;-54
2023/04/30 11:30:56;;;;;;;6.15;3.65;;;;;;;;;;4868655;29;20360;-55
2023/04/30 11:33:22;;;;;;;5.95;3.75;;;;;;;;;;4861686;29;20116;-56
2023/04/30 11:35:51;;;;;;;5.40;3.45;;;;;;;;;;4870509;29;20467;-56
2023/04/30 11:38:17;;;;;;;5.72;3.42;;;;;;;;;;4839026;29;20575;-53
2023/04/30 11:40:45;;;;;;;6.00;3.80;;;;;;;;;;4863071;29;20088;-54
2023/04/30 11:43:20;;;;;;;7.47;3.80;;;;;;;;;;4869281;29;20090;-54
2023/04/30 11:45:57;;;;;;;7.00;3.53;;;;;;;;;;4841853;29;20539;-53
2023/04/30 11:48:22;;;;;;;5.50;3.42;;;;;;;;;;4860005;29;20036;-54
2023/04/30 11:50:47;;;;;;;4.80;3.60;;;;;;;;;;4846053;29;20033;-55
2023/04/30 11:53:13;;;;;;;7.13;3.70;;;;;;;;;;4861809;29;20029;-53
2023/04/30 11:55:40;;;;;;;4.88;3.33;;;;;;;;;;4872276;29;20037;-52
2023/04/30 11:58:08;;;;;;;5.78;3.50;;;;;;;;;;4860567;29;20056;-55
2023/04/30 12:00:33;;;;;;;5.60;3.85;;;;;;;;;;4850307;29;20056;-53
2023/04/30 12:03:00;;;;;;;7.60;3.67;;;;;;;;;;4870079;29;20029;-55
2023/04/30 12:05:26;;;;;;;4.97;3.22;;;;;;;;;;4863785;29;20276;-57
2023/04/30 12:08:03;;;;;;;5.60;3.53;;;;;;;;;;4868430;29;20041;-58
2023/04/30 12:10:28;;;;;;;;;;;;;;;;;;4864531;29;20075;-57
2023/04/30 12:12:54;;;;;;;6.13;4.13;;;;;;;;;;4862421;29;20034;-54
2023/04/30 12:15:25;;;;;;;5.63;3.50;;;;;;;;;;4868146;29;20444;-60
2023/04/30 12:17:50;;;;;;;8.02;4.10;;;;;;;;;;4863979;29;20036;-54
2023/04/30 12:20:17;;;;;;;4.30;3.30;;;;;;;;;;4870161;29;20093;-53
2023/04/30 12:22:43;;;;;;;5.47;3.60;;;;;;;;;;4864202;29;20141;-55
2023/04/30 12:25:12;;;;;;;8.80;4.47;;;;;;;;;;4847701;29;20387;-55
2023/04/30 12:27:38;;;;;;;6.10;3.75;;;;;;;;;;4869801;29;20041;-57
2023/04/30 12:30:06;;;;;;;6.80;4.32;;;;;;;;;;4863064;29;20120;-54
2023/04/30 12:32:36;;;;;;;6.18;3.75;;;;;;;;;;4870040;29;20935;-54
2023/04/30 12:35:01;;;;;;;7.13;3.90;;;;;;;;;;4866724;29;20033;-56
2023/04/30 12:37:27;;;;;;;6.20;3.50;;;;;;;;;;4863240;29;20037;-56
2023/04/30 12:39:54;;;;;;;5.77;3.70;;;;;;;;;;4869514;29;20045;-57
2023/04/30 12:42:19;;;;;;;5.93;3.58;;;;;;;;;;4863064;29;20499;-56
2023/04/30 12:44:44;;;;;;;6.90;3.60;;;;;;;;;;4846862;29;20124;-57
2023/04/30 12:47:10;;;;;;;6.90;3.60;;;;;;;;;;4869334;29;20052;-56
2023/04/30 12:49:38;;;;;;;5.63;3.50;;;;;;;;;;4862300;29;20037;-55
2023/04/30 12:52:07;;;;;;;6.28;3.42;;;;;;;;;;4868625;29;20040;-55
2023/04/30 12:54:33;;;;;;;7.25;3.58;;;;;;;;;;4859873;29;20028;-53
2023/04/30 12:57:02;;;;;;;7.97;3.70;;;;;;;;;;4859380;29;20033;-55
2023/04/30 12:59:28;;;;;;;7.15;3.88;;;;;;;;;;4862849;29;20058;-56
2023/04/30 13:01:53;;;;;;;4.65;3.08;;;;;;;;;;4863723;29;20252;-56
2023/04/30 13:04:19;;;;;;;4.57;3.03;;;;;;;;;;4863361;29;20029;-54
2023/04/30 13:06:45;;;;;;;5.70;3.10;;;;;;;;;;4859837;29;20045;-53
2023/04/30 13:09:11;;;;;;;6.07;3.23;;;;;;;;;;4858838;29;20653;-53
2023/04/30 13:11:36;;;;;;;7.20;3.45;;;;;;;;;;4867923;29;20089;-52
2023/04/30 13:14:01;;;;;;;5.33;3.20;;;;;;;;;;4843288;29;20029;-55
2023/04/30 13:16:27;;;;;;;4.70;3.10;;;;;;;;;;4869507;29;20041;-56
2023/04/30 13:18:53;;;;;;;9.03;3.40;;;;;;;;;;4839549;29;20029;-56
2023/04/30 13:21:19;;;;;;;4.27;3.33;;;;;;;;;;4844939;29;21359;-56
2023/04/30 13:23:45;;;;;;;7.07;3.08;;;;;;;;;;4862983;29;20788;-57
2023/04/30 13:26:10;;;;;;;4.83;3.43;;;;;;;;;;4843001;29;20120;-60
2023/04/30 13:28:36;;;;;;;4.67;3.40;;;;;;;;;;4869981;29;20047;-53
2023/04/30 13:31:01;;;;;;;5.73;3.17;;;;;;;;;;4863908;29;20032;-56
2023/04/30 13:33:27;;;;;;;6.07;3.97;;;;;;;;;;4861763;29;20033;-54
2023/04/30 13:35:52;;;;;;;7.57;3.80;;;;;;;;;;4868608;29;20052;-54
2023/04/30 13:38:17;;;;;;;5.90;3.63;;;;;;;;;;4861755;29;20487;-53
2023/04/30 13:40:42;;;;;;;5.40;3.40;;;;;;;;;;4870711;29;20033;-56
2023/04/30 13:43:08;;;;;;;6.13;3.80;;;;;;;;;;4862469;29;20043;-55
2023/04/30 13:45:33;;;;;;;5.13;3.33;;;;;;;;;;4863838;29;20053;-54
2023/04/30 13:47:58;;;;;;;5.30;3.17;;;;;;;;;;4869682;29;20060;-54
2023/04/30 13:50:24;;;;;;;7.70;3.40;;;;;;;;;;4863492;29;20116;-54
2023/04/30 13:52:49;;;;;;;6.33;3.20;;;;;;;;;;4869336;29;20029;-54
2023/04/30 13:55:15;;;;;;;5.40;3.20;;;;;;;;;;4861646;29;20115;-53
2023/04/30 13:57:40;;;;;;;5.37;2.80;;;;;;;;;;4860962;29;20066;-50
2023/04/30 14:00:06;;;;;;;5.03;3.00;;;;;;;;;;4868055;29;20172;-57
2023/04/30 14:02:33;;;;;;;4.15;2.88;;;;;;;;;;4863448;29;20128;-57
2023/04/30 14:04:59;;;;;;;4.73;2.50;;;;;;;;;;4869612;29;20131;-56
2023/04/30 14:07:24;;;;;;;4.28;2.60;;;;;;;;;;4861628;29;20060;-55
2023/04/30 14:09:49;;;;;;;8.53;3.20;;;;;;;;;;4862856;29;20129;-51
2023/04/30 14:12:15;;;;;;;6.20;3.10;;;;;;;;;;4869305;29;20080;-56
2023/04/30 14:14:40;;;;;;;4.60;3.10;;;;;;;;;;4846738;29;20045;-52
2023/04/30 14:17:06;;;;;;;5.40;2.97;;;;;;;;;;4871846;29;20585;-52
2023/04/30 14:19:31;;;;;;;4.00;2.93;;;;;;;;;;4868172;29;20499;-52
2023/04/30 14:21:57;;;;;;;6.90;2.90;;;;;;;;;;4849888;29;20528;-51
2023/04/30 14:24:22;;;;;;;5.30;3.17;;;;;;;;;;4872302;29;20037;-50
2023/04/30 14:26:48;;;;;;;4.27;2.67;;;;;;;;;;4872532;29;20032;-56